createdAt,value
2018-01-23T00:00:31.910Z,97.31
2018-01-23T00:03:06.608Z,97.25
2018-01-23T00:05:41.600Z,97.28
2018-01-23T00:08:16.562Z,97.28
2018-01-23T00:10:51.578Z,97.41
2018-01-23T00:13:26.623Z,97.54
2018-01-23T00:16:02.471Z,97.34
2018-01-23T00:18:37.078Z,97.42
2018-01-23T00:21:12.275Z,97.16
2018-01-23T00:23:47.107Z,97.03
2018-01-23T00:26:22.023Z,96.95
2018-01-23T00:28:57.077Z,96.96
2018-01-23T00:31:32.283Z,97.03
2018-01-23T00:34:07.412Z,96.84
2018-01-23T00:36:41.919Z,96.95
2018-01-23T00:39:17.015Z,96.62
2018-01-23T00:41:51.663Z,96.42
2018-01-23T00:44:26.348Z,96.50
2018-01-23T00:47:02.409Z,96.36
2018-01-23T00:49:37.024Z,96.39
2018-01-23T00:52:12.287Z,96.37
2018-01-23T00:54:47.183Z,96.32
2018-01-23T00:57:22.448Z,96.42
2018-01-23T00:59:57.792Z,96.42
2018-01-23T01:02:33.155Z,96.48
2018-01-23T01:05:07.771Z,96.48
2018-01-23T01:07:42.974Z,96.41
2018-01-23T01:10:18.421Z,96.09
2018-01-23T01:12:53.524Z,95.99
2018-01-23T01:15:28.375Z,96.16
2018-01-23T01:18:03.555Z,95.56
2018-01-23T01:20:38.303Z,95.26
2018-01-23T01:23:13.541Z,95.41
2018-01-23T01:25:48.447Z,95.37
2018-01-23T01:28:23.388Z,95.32
2018-01-23T01:30:58.109Z,95.31
2018-01-23T01:33:33.391Z,95.19
2018-01-23T01:36:08.471Z,95.26
2018-01-23T01:38:43.532Z,95.54
2018-01-23T01:41:18.530Z,95.24
2018-01-23T01:43:53.408Z,95.15
2018-01-23T01:46:28.408Z,95.62
2018-01-23T01:49:03.890Z,96.01
2018-01-23T01:51:38.374Z,96.24
2018-01-23T01:54:13.718Z,96.31
2018-01-23T01:56:48.387Z,96.26
2018-01-23T01:59:23.220Z,96.28
2018-01-23T02:01:58.457Z,96.28
2018-01-23T02:04:33.465Z,96.14
2018-01-23T02:07:08.529Z,95.84
2018-01-23T02:09:43.137Z,95.66
2018-01-23T02:12:18.512Z,95.64
2018-01-23T02:14:53.469Z,95.72
2018-01-23T02:17:28.351Z,95.91
2018-01-23T02:20:03.435Z,96.17
2018-01-23T02:22:38.026Z,96.34
2018-01-23T02:25:12.572Z,96.47
2018-01-23T02:27:47.809Z,96.48
2018-01-23T02:30:22.295Z,96.73
2018-01-23T02:32:56.611Z,96.28
2018-01-23T02:35:31.616Z,96.14
2018-01-23T02:38:06.726Z,96.26
2018-01-23T02:40:41.687Z,96.09
2018-01-23T02:43:16.682Z,96.21
2018-01-23T02:45:51.734Z,96.40
2018-01-23T02:48:26.619Z,96.19
2018-01-23T02:51:02.790Z,96.39
2018-01-23T02:53:37.666Z,96.53
2018-01-23T02:56:12.174Z,96.82
2018-01-23T02:58:46.615Z,96.51
2018-01-23T03:01:21.519Z,96.45
2018-01-23T03:03:56.619Z,96.14
2018-01-23T03:06:31.598Z,96.28
2018-01-23T03:09:06.135Z,96.26
2018-01-23T03:11:41.352Z,96.30
2018-01-23T03:14:16.433Z,96.22
2018-01-23T03:16:51.298Z,96.14
2018-01-23T03:19:26.330Z,95.97
2018-01-23T03:22:00.788Z,96.17
2018-01-23T03:24:35.672Z,96.31
2018-01-23T03:27:10.877Z,96.57
2018-01-23T03:29:45.542Z,97.05
2018-01-23T03:32:20.494Z,96.66
2018-01-23T03:34:55.510Z,96.53
2018-01-23T03:37:30.517Z,96.58
2018-01-23T03:40:05.769Z,96.41
2018-01-23T03:42:40.658Z,96.04
2018-01-23T03:45:15.842Z,95.89
2018-01-23T03:47:50.921Z,95.97
2018-01-23T03:50:25.695Z,95.99
2018-01-23T03:53:00.322Z,95.87
2018-01-23T03:55:35.550Z,95.80
2018-01-23T03:58:10.782Z,96.04
2018-01-23T04:00:45.534Z,96.14
2018-01-23T04:03:20.602Z,96.09
2018-01-23T04:05:55.695Z,96.17
2018-01-23T04:08:30.747Z,96.38
2018-01-23T04:11:05.976Z,96.23
2018-01-23T04:13:40.803Z,96.25
2018-01-23T04:16:15.592Z,96.32
2018-01-23T04:18:52.462Z,96.08
2018-01-23T04:21:27.562Z,95.86
2018-01-23T04:24:03.062Z,95.85
2018-01-23T04:26:38.590Z,95.77
2018-01-23T04:29:13.987Z,95.60
2018-01-23T04:31:48.394Z,95.62
2018-01-23T04:34:23.578Z,95.90
2018-01-23T04:36:58.718Z,96.14
2018-01-23T04:39:33.063Z,95.88
2018-01-23T04:42:07.882Z,95.90
2018-01-23T04:44:42.879Z,95.81
2018-01-23T04:47:18.245Z,95.63
2018-01-23T04:49:52.982Z,95.56
2018-01-23T04:52:27.756Z,95.57
2018-01-23T04:55:03.039Z,95.68
2018-01-23T04:57:37.759Z,95.78
2018-01-23T05:00:12.766Z,95.83
2018-01-23T05:02:47.878Z,95.85
2018-01-23T05:05:23.164Z,95.94
2018-01-23T05:07:57.707Z,95.71
2018-01-23T05:10:32.566Z,95.80
2018-01-23T05:13:07.719Z,96.06
2018-01-23T05:15:42.742Z,96.08
2018-01-23T05:18:18.029Z,95.98
2018-01-23T05:20:52.762Z,95.68
2018-01-23T05:23:27.866Z,95.48
2018-01-23T05:26:03.136Z,95.66
2018-01-23T05:28:37.918Z,95.73
2018-01-23T05:31:12.875Z,95.98
2018-01-23T05:33:47.914Z,96.16
2018-01-23T05:36:22.767Z,96.07
2018-01-23T05:38:57.813Z,96.31
2018-01-23T05:41:32.797Z,96.14
2018-01-23T05:44:07.875Z,95.85
2018-01-23T05:46:42.960Z,95.65
2018-01-23T05:49:17.943Z,95.76
2018-01-23T05:51:52.946Z,95.97
2018-01-23T05:54:27.890Z,96.14
2018-01-23T05:57:03.202Z,96.25
2018-01-23T05:59:37.842Z,96.41
2018-01-23T06:02:12.920Z,96.63
2018-01-23T06:04:47.358Z,96.62
2018-01-23T06:07:22.859Z,96.68
2018-01-23T06:09:58.034Z,96.74
2018-01-23T06:12:32.876Z,96.94
2018-01-23T06:15:08.221Z,96.73
2018-01-23T06:17:43.285Z,96.54
2018-01-23T06:20:18.453Z,96.25
2018-01-23T06:22:53.323Z,96.11
2018-01-23T06:25:28.437Z,96.14
2018-01-23T06:28:03.429Z,96.32
2018-01-23T06:30:38.328Z,96.47
2018-01-23T06:33:13.176Z,96.28
2018-01-23T06:35:48.493Z,96.08
2018-01-23T06:38:23.389Z,96.07
2018-01-23T06:41:01.675Z,96.08
2018-01-23T06:43:36.942Z,96.09
2018-01-23T06:46:12.014Z,96.06
2018-01-23T06:48:47.002Z,95.89
2018-01-23T06:51:22.004Z,95.76
2018-01-23T06:53:57.227Z,95.64
2018-01-23T06:56:32.158Z,95.71
2018-01-23T06:59:06.768Z,95.89
2018-01-23T07:01:42.096Z,95.77
2018-01-23T07:04:17.352Z,95.76
2018-01-23T07:06:51.892Z,95.60
2018-01-23T07:09:26.563Z,95.56
2018-01-23T07:12:01.443Z,95.55
2018-01-23T07:14:36.513Z,95.31
2018-01-23T07:17:11.575Z,95.59
2018-01-23T07:19:46.457Z,95.88
2018-01-23T07:22:21.357Z,95.59
2018-01-23T07:24:56.351Z,95.55
2018-01-23T07:27:31.006Z,95.50
2018-01-23T07:30:06.130Z,95.52
2018-01-23T07:32:41.050Z,95.74
2018-01-23T07:35:16.342Z,95.62
2018-01-23T07:37:51.323Z,95.59
2018-01-23T07:40:26.514Z,95.26
2018-01-23T07:43:03.616Z,95.41
2018-01-23T07:45:38.202Z,95.42
2018-01-23T07:48:13.151Z,95.53
2018-01-23T07:50:48.213Z,95.39
2018-01-23T07:53:23.446Z,95.27
2018-01-23T07:55:58.289Z,95.08
2018-01-23T07:58:33.282Z,94.97
2018-01-23T08:01:08.356Z,95.06
2018-01-23T08:03:43.222Z,95.25
2018-01-23T08:06:18.226Z,94.73
2018-01-23T08:08:53.241Z,94.65
2018-01-23T08:11:28.280Z,94.88
2018-01-23T08:14:03.559Z,94.95
2018-01-23T08:16:38.277Z,94.92
2018-01-23T08:19:13.267Z,94.85
2018-01-23T08:21:48.208Z,94.86
2018-01-23T08:24:23.259Z,94.74
2018-01-23T08:26:57.894Z,94.62
2018-01-23T08:29:33.187Z,94.36
2018-01-23T08:32:08.377Z,94.38
2018-01-23T08:34:42.867Z,94.43
2018-01-23T08:37:17.617Z,94.67
2018-01-23T08:39:52.784Z,94.63
2018-01-23T08:42:27.775Z,94.53
2018-01-23T08:45:03.700Z,94.37
2018-01-23T08:47:38.731Z,94.30
2018-01-23T08:50:13.701Z,94.22
2018-01-23T08:52:48.662Z,94.18
2018-01-23T08:55:23.331Z,93.84
2018-01-23T08:57:58.386Z,93.61
2018-01-23T09:00:33.152Z,93.63
2018-01-23T09:03:08.291Z,92.88
2018-01-23T09:05:43.298Z,93.09
2018-01-23T09:08:18.493Z,93.23
2018-01-23T09:10:53.270Z,93.34
2018-01-23T09:13:28.224Z,93.02
2018-01-23T09:16:03.751Z,92.85
2018-01-23T09:18:39.301Z,92.90
2018-01-23T09:21:13.888Z,92.55
2018-01-23T09:23:49.299Z,92.52
2018-01-23T09:26:24.304Z,92.71
2018-01-23T09:28:59.647Z,92.62
2018-01-23T09:31:34.610Z,93.23
2018-01-23T09:34:09.827Z,92.74
2018-01-23T09:36:44.819Z,93.07
2018-01-23T09:39:19.826Z,92.97
2018-01-23T09:41:54.942Z,93.09
2018-01-23T09:44:30.278Z,93.30
2018-01-23T09:47:05.289Z,93.08
2018-01-23T09:49:39.938Z,93.44
2018-01-23T09:52:14.923Z,93.36
2018-01-23T09:54:49.727Z,93.00
2018-01-23T09:57:24.542Z,92.83
2018-01-23T09:59:59.858Z,92.95
2018-01-23T10:02:34.919Z,92.93
2018-01-23T10:05:10.744Z,92.67
2018-01-23T10:07:45.591Z,92.55
2018-01-23T10:10:20.649Z,92.73
2018-01-23T10:12:55.627Z,92.24
2018-01-23T10:15:30.953Z,92.19
2018-01-23T10:18:05.827Z,92.25
2018-01-23T10:20:40.614Z,91.79
2018-01-23T10:23:15.838Z,91.81
2018-01-23T10:25:50.660Z,91.66
2018-01-23T10:28:25.637Z,91.35
2018-01-23T10:31:00.870Z,91.24
2018-01-23T10:33:35.767Z,91.55
2018-01-23T10:36:10.909Z,91.50
2018-01-23T10:38:46.639Z,90.73
2018-01-23T10:41:21.583Z,90.78
2018-01-23T10:43:56.679Z,90.83
2018-01-23T10:46:31.695Z,91.06
2018-01-23T10:49:06.962Z,90.63
2018-01-23T10:51:41.642Z,90.76
2018-01-23T10:54:16.800Z,90.39
2018-01-23T10:56:51.669Z,90.31
2018-01-23T10:59:26.577Z,90.08
2018-01-23T11:02:01.372Z,89.88
2018-01-23T11:04:36.745Z,89.87
2018-01-23T11:07:11.618Z,89.92
2018-01-23T11:09:46.701Z,89.11
2018-01-23T11:12:21.689Z,89.31
2018-01-23T11:14:56.663Z,89.27
2018-01-23T11:17:33.040Z,89.82
2018-01-23T11:20:08.223Z,89.91
2018-01-23T11:22:43.718Z,89.44
2018-01-23T11:25:18.934Z,89.71
2018-01-23T11:27:53.742Z,89.56
2018-01-23T11:30:28.718Z,89.47
2018-01-23T11:33:04.026Z,89.65
2018-01-23T11:35:38.731Z,88.90
2018-01-23T11:38:14.026Z,88.93
2018-01-23T11:40:48.842Z,88.94
2018-01-23T11:43:23.752Z,88.38
2018-01-23T11:45:58.716Z,88.21
2018-01-23T11:48:33.768Z,87.62
2018-01-23T11:51:08.622Z,87.81
2018-01-23T11:53:43.758Z,87.91
2018-01-23T11:56:18.977Z,87.48
2018-01-23T11:58:53.917Z,87.30
2018-01-23T12:01:28.427Z,87.37
2018-01-23T12:04:03.778Z,87.36
2018-01-23T12:06:38.286Z,86.69
2018-01-23T12:09:13.284Z,86.73
2018-01-23T12:11:47.988Z,86.54
2018-01-23T12:14:23.264Z,86.70
2018-01-23T12:16:58.364Z,86.25
2018-01-23T12:19:33.230Z,85.86
2018-01-23T12:22:07.987Z,85.41
2018-01-23T12:24:43.045Z,85.14
2018-01-23T12:27:17.922Z,85.37
2018-01-23T12:29:52.882Z,85.92
2018-01-23T12:32:27.891Z,85.39
2018-01-23T12:35:04.196Z,85.56
2018-01-23T12:37:40.282Z,85.57
2018-01-23T12:40:17.498Z,85.79
2018-01-23T12:42:51.982Z,85.85
2018-01-23T12:45:37.834Z,85.55
2018-01-23T12:48:12.643Z,85.47
2018-01-23T12:50:47.871Z,84.76
2018-01-23T12:53:23.044Z,84.29
2018-01-23T12:55:58.091Z,84.41
2018-01-23T12:58:32.890Z,84.63
2018-01-23T13:01:07.987Z,84.71
2018-01-23T13:03:43.013Z,84.56
2018-01-23T13:06:18.260Z,84.46
2018-01-23T13:08:53.069Z,84.33
2018-01-23T13:11:28.242Z,84.27
2018-01-23T13:14:04.238Z,84.20
2018-01-23T13:16:41.383Z,84.19
2018-01-23T13:19:16.602Z,83.89
2018-01-23T13:21:51.078Z,84.18
2018-01-23T13:24:25.487Z,84.19
2018-01-23T13:27:00.338Z,83.96
2018-01-23T13:29:34.615Z,83.99
2018-01-23T13:32:10.403Z,83.76
2018-01-23T13:34:45.292Z,84.33
2018-01-23T13:37:20.702Z,84.17
2018-01-23T13:40:01.536Z,84.17
2018-01-23T13:42:36.482Z,84.08
2018-01-23T13:45:11.471Z,84.03
2018-01-23T13:47:46.569Z,83.99
2018-01-23T13:50:21.616Z,84.03
2018-01-23T13:52:56.491Z,84.01
2018-01-23T13:55:31.604Z,84.28
2018-01-23T13:58:06.545Z,83.97
2018-01-23T14:00:41.554Z,84.37
2018-01-23T14:03:16.245Z,84.12
2018-01-23T14:05:51.604Z,83.47
2018-01-23T14:08:26.384Z,83.54
2018-01-23T14:11:02.358Z,83.22
2018-01-23T14:13:37.356Z,83.59
2018-01-23T14:16:12.010Z,83.92
2018-01-23T14:18:47.038Z,83.87
2018-01-23T14:21:22.284Z,84.12
2018-01-23T14:23:57.194Z,84.11
2018-01-23T14:26:32.070Z,83.88
2018-01-23T14:29:07.038Z,83.74
2018-01-23T14:31:41.998Z,83.94
2018-01-23T14:34:17.036Z,83.86
2018-01-23T14:36:51.886Z,84.13
2018-01-23T14:39:27.468Z,83.62
2018-01-23T14:42:02.689Z,83.38
2018-01-23T14:44:37.517Z,83.49
2018-01-23T14:47:12.268Z,83.32
2018-01-23T14:49:48.128Z,83.37
2018-01-23T14:52:23.379Z,83.48
2018-01-23T14:54:58.222Z,83.48
2018-01-23T14:57:36.812Z,83.37
2018-01-23T15:00:15.750Z,83.72
2018-01-23T15:02:50.660Z,83.56
2018-01-23T15:05:25.207Z,83.56
2018-01-23T15:08:00.068Z,83.61
2018-01-23T15:10:34.865Z,83.64
2018-01-23T15:13:09.260Z,83.45
2018-01-23T15:15:44.121Z,83.73
2018-01-23T15:18:19.848Z,83.87
2018-01-23T15:20:55.108Z,84.08
2018-01-23T15:23:29.919Z,84.03
2018-01-23T15:26:04.711Z,83.94
2018-01-23T15:28:39.268Z,83.89
2018-01-23T15:31:13.834Z,83.75
2018-01-23T15:33:48.519Z,83.73
2018-01-23T15:36:23.561Z,83.81
2018-01-23T15:38:58.828Z,84.03
2018-01-23T15:41:33.722Z,83.94
2018-01-23T15:44:08.167Z,84.06
2018-01-23T15:46:43.142Z,84.10
2018-01-23T15:49:17.966Z,84.18
2018-01-23T15:51:52.815Z,84.34
2018-01-23T15:54:27.641Z,84.52
2018-01-23T15:57:02.618Z,84.28
2018-01-23T15:59:37.045Z,84.32
2018-01-23T16:02:11.575Z,84.22
2018-01-23T16:04:46.333Z,84.42
2018-01-23T16:07:21.134Z,84.53
2018-01-23T16:09:55.792Z,84.47
2018-01-23T16:12:30.465Z,84.69
2018-01-23T16:15:05.473Z,84.97
2018-01-23T16:17:40.044Z,85.01
2018-01-23T16:20:14.624Z,85.09
2018-01-23T16:22:49.529Z,84.91
2018-01-23T16:25:24.077Z,85.09
2018-01-23T16:30:48.155Z,85.25
2018-01-23T16:33:23.339Z,85.98
2018-01-23T16:35:58.191Z,86.72
2018-01-23T16:38:33.005Z,86.56
2018-01-23T16:41:07.725Z,86.78
2018-01-23T16:43:42.731Z,86.88
2018-01-23T16:46:21.648Z,87.02
2018-01-23T16:48:57.202Z,87.03
2018-01-23T16:51:31.778Z,86.61
2018-01-23T16:54:06.006Z,86.71
2018-01-23T16:56:40.939Z,86.31
2018-01-23T16:59:15.866Z,86.46
2018-01-23T17:01:50.794Z,86.92
2018-01-23T17:04:26.718Z,86.61
2018-01-23T17:07:01.267Z,87.19
2018-01-23T17:09:36.271Z,87.77
2018-01-23T17:12:11.709Z,88.17
2018-01-23T17:14:46.406Z,88.30
2018-01-23T17:17:20.993Z,88.56
2018-01-23T17:19:55.860Z,89.05
2018-01-23T17:22:30.684Z,89.92
2018-01-23T17:25:04.875Z,90.19
2018-01-23T17:27:39.986Z,90.43
2018-01-23T17:30:15.153Z,90.97
2018-01-23T17:32:51.473Z,91.07
2018-01-23T17:35:26.412Z,90.75
2018-01-23T17:38:01.643Z,90.90
2018-01-23T17:40:36.799Z,90.90
2018-01-23T17:43:12.083Z,90.96
2018-01-23T17:45:46.894Z,91.13
2018-01-23T17:48:21.672Z,91.18
2018-01-23T17:50:56.500Z,91.81
2018-01-23T17:53:31.368Z,92.18
2018-01-23T17:56:06.307Z,92.71
2018-01-23T17:58:40.895Z,92.90
2018-01-23T18:01:25.685Z,93.04
2018-01-23T18:04:01.310Z,93.13
2018-01-23T18:06:37.104Z,92.93
2018-01-23T18:09:24.208Z,93.01
2018-01-23T18:12:03.792Z,92.76
2018-01-23T18:17:34.532Z,92.52
2018-01-23T18:20:08.991Z,92.28
2018-01-23T18:22:43.921Z,92.65
2018-01-23T18:25:19.473Z,92.39
2018-01-23T18:27:59.729Z,92.45
2018-01-23T18:33:35.083Z,92.25
2018-01-23T18:36:10.381Z,91.91
2018-01-23T18:50:19.270Z,91.51
2018-01-23T18:52:54.194Z,91.33
2018-01-23T18:55:29.194Z,91.18
2018-01-23T18:58:05.503Z,90.82
2018-01-23T19:00:39.857Z,90.71
2018-01-23T19:03:14.268Z,90.42
2018-01-23T19:05:49.229Z,90.24
2018-01-23T19:08:24.526Z,90.19
2018-01-23T19:10:59.546Z,89.99
2018-01-23T19:13:34.671Z,90.01
2018-01-23T19:16:10.084Z,89.94
2018-01-23T19:18:45.092Z,89.88
2018-01-23T19:21:20.430Z,89.83
2018-01-23T19:23:55.190Z,89.77
2018-01-23T19:26:30.245Z,89.75
2018-01-23T19:29:05.588Z,89.89
2018-01-23T19:31:40.454Z,90.04
2018-01-23T19:34:15.707Z,90.06
2018-01-23T19:36:51.254Z,89.98
2018-01-23T19:39:26.169Z,90.01
2018-01-23T19:42:01.524Z,89.92
2018-01-23T19:44:36.597Z,89.95
2018-01-23T19:47:11.610Z,89.93
2018-01-23T19:49:46.790Z,89.71
2018-01-23T19:52:22.233Z,89.53
2018-01-23T19:54:57.413Z,89.58
2018-01-23T19:57:32.513Z,89.41
2018-01-23T20:00:07.176Z,89.34
2018-01-23T20:02:42.338Z,89.52
2018-01-23T20:05:16.842Z,89.51
2018-01-23T20:07:51.630Z,89.33
2018-01-23T20:10:26.705Z,89.35
2018-01-23T20:13:01.831Z,89.60
2018-01-23T20:15:36.711Z,89.51
2018-01-23T20:18:11.715Z,89.47
2018-01-23T20:20:46.848Z,89.70
2018-01-23T20:23:21.998Z,89.88
2018-01-23T20:25:57.431Z,90.00
2018-01-23T20:28:32.399Z,90.11
2018-01-23T20:31:07.698Z,90.09
2018-01-23T20:33:42.069Z,90.41
2018-01-23T20:36:17.352Z,90.86
2018-01-23T20:38:52.020Z,91.70
2018-01-23T20:41:27.290Z,92.23
2018-01-23T20:44:02.115Z,92.50
2018-01-23T20:46:36.975Z,92.83
2018-01-23T20:49:11.909Z,92.97
2018-01-23T20:51:46.644Z,93.07
2018-01-23T20:54:21.682Z,93.37
2018-01-23T20:56:56.576Z,93.72
2018-01-23T20:59:31.474Z,93.88
2018-01-23T21:02:07.600Z,93.89
2018-01-23T21:04:42.887Z,94.18
2018-01-23T21:07:19.190Z,94.28
2018-01-23T21:09:56.632Z,94.35
2018-01-23T21:12:31.042Z,94.28
2018-01-23T21:15:06.586Z,94.43
2018-01-23T21:17:41.858Z,94.41
2018-01-23T21:20:16.665Z,94.59
2018-01-23T21:22:51.719Z,94.82
2018-01-23T21:25:26.260Z,95.03
2018-01-23T21:28:00.985Z,95.20
2018-01-23T21:30:35.779Z,95.15
2018-01-23T21:33:10.170Z,95.37
2018-01-23T21:35:45.228Z,95.44
2018-01-23T21:38:20.490Z,95.27
2018-01-23T21:40:55.819Z,95.21
2018-01-23T21:43:30.242Z,95.37
2018-01-23T21:46:06.208Z,95.41
2018-01-23T21:48:41.341Z,95.35
2018-01-23T21:51:16.930Z,95.32
2018-01-23T21:53:51.916Z,95.26
2018-01-23T21:56:26.880Z,95.15
2018-01-23T21:59:02.195Z,95.03
2018-01-23T22:01:37.178Z,95.16
2018-01-23T22:04:12.130Z,95.18
2018-01-23T22:06:47.235Z,95.09
2018-01-23T22:09:22.854Z,94.97
2018-01-23T22:11:57.866Z,95.10
2018-01-23T22:14:33.137Z,95.31
2018-01-23T22:17:09.338Z,95.39
2018-01-23T22:19:44.494Z,95.31
2018-01-23T22:22:19.181Z,95.78
2018-01-23T22:24:54.352Z,95.98
2018-01-23T22:27:29.439Z,96.03
2018-01-23T22:30:05.324Z,96.23
2018-01-23T22:32:39.929Z,96.42
2018-01-23T22:35:14.308Z,96.62
2018-01-23T22:37:49.410Z,96.68
2018-01-23T22:40:24.752Z,96.74
2018-01-23T22:42:59.464Z,96.87
2018-01-23T22:45:34.126Z,97.08
2018-01-23T22:48:09.446Z,97.16
2018-01-23T22:50:43.847Z,97.38
2018-01-23T22:53:19.237Z,97.38
2018-01-23T22:55:54.065Z,97.34
2018-01-23T22:58:29.153Z,97.38
2018-01-23T23:01:04.276Z,97.30
2018-01-23T23:03:39.954Z,97.11
2018-01-23T23:06:14.977Z,96.94
2018-01-23T23:08:50.068Z,96.82
2018-01-23T23:11:25.174Z,96.76
2018-01-23T23:14:00.146Z,96.80
2018-01-23T23:16:35.253Z,96.75
2018-01-23T23:19:14.142Z,96.88
2018-01-23T23:21:48.962Z,96.81
2018-01-23T23:24:24.167Z,96.83
2018-01-23T23:26:59.339Z,96.72
2018-01-23T23:29:34.359Z,96.73
2018-01-23T23:32:09.656Z,96.75
2018-01-23T23:34:45.118Z,96.71
2018-01-23T23:37:20.222Z,96.70
2018-01-23T23:39:55.030Z,96.80
2018-01-23T23:42:30.099Z,96.87
2018-01-23T23:45:06.383Z,97.03
2018-01-23T23:47:41.411Z,97.23
2018-01-23T23:50:16.662Z,97.41
2018-01-23T23:52:52.078Z,97.60
2018-01-23T23:55:27.215Z,97.75
2018-01-23T23:58:02.294Z,97.78
